Terminal Aerodrome Forecast
Issued by NWS Charleston, WV

Current Version | Previous Version | Text Only | Print | Product List | Glossary Off
Versions: 1 2 3 4 5 6 7 8 9 10 11 12 13 14 15 16 17 18 19 20 21 22 23 24

000
FTUS41 KRLX 031500 AAA
TAFHTS
TAF AMD
KHTS 031506Z 0315/0412 15006KT P6SM -SHRA OVC025
     FM032000 18010G16KT P6SM OVC020
     FM040500 21009G14KT 2SM RA OVC008
     FM040800 28008G16KT 1SM +RA OVC008=

USA.gov is the U.S. government's official web portal to all federal, state and local government web resources and services.